createdAt,value
2019-03-26T00:00:03.212Z,75.64
2019-03-26T00:05:02.544Z,75.69
2019-03-26T00:10:03.001Z,75.7
2019-03-26T00:15:02.370Z,75.75
2019-03-26T00:20:02.759Z,75.76
2019-03-26T00:25:03.194Z,75.75
2019-03-26T00:30:02.517Z,75.77
2019-03-26T00:35:02.946Z,75.83
2019-03-26T00:40:02.371Z,75.81
2019-03-26T00:45:02.816Z,75.78
2019-03-26T00:50:03.167Z,75.78
2019-03-26T00:55:01.749Z,75.81
2019-03-26T01:00:03.111Z,75.81
2019-03-26T01:05:02.744Z,75.86
2019-03-26T01:10:03.208Z,75.9
2019-03-26T01:15:02.599Z,75.95
2019-03-26T01:20:03.060Z,75.95
2019-03-26T01:25:02.470Z,76.01
2019-03-26T01:30:02.913Z,75.98
2019-03-26T01:35:03.288Z,75.97
2019-03-26T01:40:02.788Z,75.95
2019-03-26T01:45:03.231Z,75.99
2019-03-26T01:50:02.639Z,76.02
2019-03-26T01:55:02.978Z,76.01
2019-03-26T02:00:02.413Z,76.08
2019-03-26T02:05:02.843Z,76.0
2019-03-26T02:10:03.284Z,76.03
2019-03-26T02:15:02.708Z,75.97
2019-03-26T02:20:03.146Z,75.93
2019-03-26T02:25:02.581Z,75.92
2019-03-26T02:30:03.019Z,75.92
2019-03-26T02:35:17.054Z,76.08
2019-03-26T02:40:02.987Z,75.98
2019-03-26T02:45:02.407Z,75.98
2019-03-26T02:50:02.842Z,75.97
2019-03-26T02:55:03.287Z,75.99
2019-03-26T03:00:02.690Z,76.08
2019-03-26T03:05:03.045Z,75.99
2019-03-26T03:10:02.568Z,76.03
2019-03-26T03:15:03.019Z,76.05
2019-03-26T03:20:02.471Z,76.05
2019-03-26T03:25:02.155Z,76.07
2019-03-26T03:30:02.601Z,76.06
2019-03-26T03:35:02.957Z,76.03
2019-03-26T03:40:02.465Z,76.04
2019-03-26T03:45:02.905Z,76.06
2019-03-26T03:50:03.346Z,76.13
2019-03-26T03:55:02.767Z,76.04
2019-03-26T04:00:03.334Z,76.06
2019-03-26T04:05:02.768Z,76.03
2019-03-26T04:10:03.215Z,76.08
2019-03-26T04:15:02.631Z,76.05
2019-03-26T04:20:03.041Z,76.09
2019-03-26T04:25:02.418Z,76.06
2019-03-26T04:30:02.817Z,76.05
2019-03-26T04:35:03.240Z,76.01
2019-03-26T04:40:02.692Z,75.97
2019-03-26T04:45:03.116Z,75.88
2019-03-26T04:50:02.514Z,75.85
2019-03-26T04:55:02.840Z,75.82
2019-03-26T05:00:03.206Z,75.82
2019-03-26T05:05:02.619Z,75.87
2019-03-26T05:10:03.064Z,75.87
2019-03-26T05:15:02.475Z,75.92
2019-03-26T05:20:02.927Z,75.92
2019-03-26T05:25:03.375Z,75.98
2019-03-26T05:30:02.777Z,76.04
2019-03-26T05:35:03.130Z,76.09
2019-03-26T05:40:02.549Z,76.09
2019-03-26T05:45:02.887Z,76.11
2019-03-26T05:50:03.232Z,76.15
2019-03-26T05:55:02.643Z,76.22
2019-03-26T06:00:02.993Z,76.27
2019-03-26T06:05:02.406Z,76.32
2019-03-26T06:10:02.897Z,76.32
2019-03-26T06:15:02.420Z,76.35
2019-03-26T06:20:02.810Z,76.47
2019-03-26T06:25:03.172Z,76.49
2019-03-26T06:30:02.591Z,76.49
2019-03-26T06:35:03.021Z,76.44
2019-03-26T06:40:02.432Z,76.42
2019-03-26T06:45:02.793Z,76.53
2019-03-26T06:50:03.223Z,76.58
2019-03-26T06:55:02.549Z,76.66
2019-03-26T07:00:02.985Z,76.71
2019-03-26T07:05:02.410Z,76.83
2019-03-26T07:10:02.847Z,76.92
2019-03-26T07:15:03.194Z,76.97
2019-03-26T07:20:02.597Z,77.11
2019-03-26T07:25:03.043Z,77.12
2019-03-26T07:30:02.464Z,77.14
2019-03-26T07:35:02.812Z,77.12
2019-03-26T07:40:03.360Z,77.11
2019-03-26T07:45:02.763Z,77.08
2019-03-26T07:50:03.112Z,77.28
2019-03-26T07:55:02.839Z,77.24
2019-03-26T08:00:03.398Z,77.27
2019-03-26T08:05:02.814Z,77.03
2019-03-26T08:10:03.254Z,76.89
2019-03-26T08:15:02.663Z,76.9
2019-03-26T08:20:03.018Z,76.92
2019-03-26T08:25:02.356Z,76.88
2019-03-26T08:30:02.780Z,76.84
2019-03-26T08:35:03.226Z,76.73
2019-03-26T08:40:02.632Z,76.69
2019-03-26T08:45:02.167Z,76.63
2019-03-26T08:50:02.481Z,76.57
2019-03-26T08:55:04.335Z,76.51
2019-03-26T09:00:02.872Z,76.48
2019-03-26T09:05:03.312Z,76.49
2019-03-26T09:10:02.738Z,76.53
2019-03-26T09:15:03.086Z,76.5
2019-03-26T09:20:02.496Z,76.61
2019-03-26T09:25:02.832Z,76.71
2019-03-26T09:30:03.285Z,76.52
2019-03-26T09:35:02.710Z,76.24
2019-03-26T09:40:03.147Z,75.91
2019-03-26T09:45:02.552Z,75.66
2019-03-26T09:50:02.897Z,75.43
2019-03-26T09:55:03.248Z,75.08
2019-03-26T10:00:02.663Z,74.78
2019-03-26T10:05:03.008Z,74.83
2019-03-26T10:10:02.424Z,74.83
2019-03-26T10:15:02.865Z,74.63
2019-03-26T10:20:03.306Z,74.4
2019-03-26T10:25:02.741Z,73.92
2019-03-26T10:30:05.621Z,73.91
2019-03-26T10:35:03.319Z,73.96
2019-03-26T10:40:02.829Z,73.97
2019-03-26T10:45:03.280Z,73.93
2019-03-26T10:50:02.606Z,73.98
2019-03-26T10:55:03.034Z,74.0
2019-03-26T11:00:02.462Z,73.92
2019-03-26T11:05:02.893Z,73.97
2019-03-26T11:10:03.283Z,73.94
2019-03-26T11:15:02.667Z,74.01
2019-03-26T11:20:02.202Z,74.02
2019-03-26T11:25:01.907Z,74.03
2019-03-26T11:30:03.265Z,74.03
2019-03-26T11:35:02.683Z,74.22
2019-03-26T11:40:03.165Z,74.3
2019-03-26T11:45:02.503Z,74.35
2019-03-26T11:50:04.821Z,74.29
2019-03-26T11:55:03.360Z,74.44
2019-03-26T12:00:02.758Z,74.11
2019-03-26T12:05:03.232Z,73.92
2019-03-26T12:10:02.705Z,73.72
2019-03-26T12:15:03.118Z,73.26
2019-03-26T12:20:02.575Z,72.79
2019-03-26T12:25:02.930Z,71.88
2019-03-26T12:30:03.362Z,71.17
2019-03-26T12:35:02.777Z,66.7
2019-03-26T12:40:03.236Z,66.67
2019-03-26T12:45:02.647Z,68.46
2019-03-26T12:50:02.985Z,68.87
2019-03-26T12:55:02.407Z,68.69
2019-03-26T13:00:02.846Z,68.76
2019-03-26T13:05:03.193Z,69.12
2019-03-26T13:10:12.619Z,69.08
2019-03-26T13:15:02.642Z,69.36
2019-03-26T13:20:02.981Z,69.38
2019-03-26T13:25:02.415Z,69.12
2019-03-26T13:30:02.847Z,69.45
2019-03-26T13:35:03.195Z,69.1
2019-03-26T13:40:02.714Z,68.85
2019-03-26T13:45:03.148Z,69.44
2019-03-26T13:50:02.572Z,69.32
2019-03-26T13:55:02.095Z,69.5
2019-03-26T14:00:02.527Z,69.71
2019-03-26T14:05:02.882Z,70.12
2019-03-26T14:10:03.312Z,70.45
2019-03-26T14:15:02.757Z,70.73
2019-03-26T14:20:03.186Z,70.5
2019-03-26T14:25:02.629Z,70.04
2019-03-26T14:30:03.076Z,70.2
2019-03-26T14:35:02.495Z,70.15
2019-03-26T14:40:02.919Z,69.67
2019-03-26T14:45:03.347Z,69.34
2019-03-26T14:50:02.805Z,69.4
2019-03-26T14:55:03.152Z,69.27
2019-03-26T15:00:02.558Z,69.62
2019-03-26T15:05:02.969Z,69.4
2019-03-26T15:10:02.420Z,69.44
2019-03-26T15:15:02.877Z,69.89
2019-03-26T15:20:03.281Z,69.81
2019-03-26T15:25:02.738Z,69.85
2019-03-26T15:30:03.148Z,69.65
2019-03-26T15:35:02.582Z,69.53
2019-03-26T15:40:03.008Z,69.31
2019-03-26T15:45:02.415Z,69.44
2019-03-26T15:50:02.865Z,69.58
2019-03-26T15:55:03.318Z,69.85
2019-03-26T16:00:02.718Z,70.06
2019-03-26T16:05:03.168Z,69.94
2019-03-26T16:10:02.620Z,69.97
2019-03-26T16:15:03.060Z,69.86
2019-03-26T16:20:02.482Z,69.91
2019-03-26T16:25:02.925Z,69.82
2019-03-26T16:30:03.342Z,69.88
2019-03-26T16:35:02.803Z,69.94
2019-03-26T16:40:02.705Z,70.09
2019-03-26T16:45:03.240Z,69.93
2019-03-26T16:50:02.642Z,70.03
2019-03-26T16:55:03.133Z,70.35
2019-03-26T17:00:02.503Z,70.43
2019-03-26T17:05:02.854Z,70.68
2019-03-26T17:10:03.326Z,70.75
2019-03-26T17:15:02.731Z,71.03
2019-03-26T17:20:03.497Z,71.18
2019-03-26T17:25:02.929Z,71.45
2019-03-26T17:30:03.364Z,71.64
2019-03-26T17:35:02.745Z,71.76
2019-03-26T17:40:03.190Z,71.88
2019-03-26T17:45:02.616Z,71.98
2019-03-26T17:50:03.068Z,72.06
2019-03-26T17:55:02.402Z,72.18
2019-03-26T18:00:02.736Z,72.25
2019-03-26T18:05:03.156Z,72.36
2019-03-26T18:10:02.588Z,72.44
2019-03-26T18:15:03.017Z,72.53
2019-03-26T18:20:02.431Z,72.68
2019-03-26T18:25:02.787Z,72.75
2019-03-26T18:30:03.235Z,72.79
2019-03-26T18:35:02.665Z,72.85
2019-03-26T18:40:03.087Z,72.88
2019-03-26T18:45:02.490Z,73.01
2019-03-26T18:50:02.959Z,73.13
2019-03-26T18:55:03.395Z,73.15
2019-03-26T19:00:02.727Z,73.2
2019-03-26T19:05:03.146Z,73.28
2019-03-26T19:10:02.579Z,73.33
2019-03-26T19:15:02.235Z,73.3
2019-03-26T19:20:02.633Z,73.31
2019-03-26T19:25:02.985Z,73.37
2019-03-26T19:30:02.395Z,73.41
2019-03-26T19:35:02.833Z,73.49
2019-03-26T19:40:03.291Z,73.6
2019-03-26T19:45:02.705Z,73.69
2019-03-26T19:50:03.148Z,73.72
2019-03-26T19:55:02.492Z,73.78
2019-03-26T20:00:03.323Z,73.79
2019-03-26T20:05:02.656Z,73.81
2019-03-26T20:10:03.098Z,73.84
2019-03-26T20:15:02.482Z,73.95
2019-03-26T20:20:02.855Z,73.97
2019-03-26T20:25:03.288Z,74.03
2019-03-26T20:30:02.708Z,74.06
2019-03-26T20:35:03.143Z,74.11
2019-03-26T20:40:02.549Z,74.21
2019-03-26T20:45:02.902Z,74.25
2019-03-26T20:50:03.237Z,74.26
2019-03-26T20:55:02.669Z,74.32
2019-03-26T21:00:03.308Z,74.34
2019-03-26T21:05:02.734Z,74.38
2019-03-26T21:10:03.176Z,74.38
2019-03-26T21:15:02.596Z,74.47
2019-03-26T21:20:03.033Z,74.49
2019-03-26T21:25:02.462Z,74.5
2019-03-26T21:30:10.591Z,74.5
2019-03-26T21:35:03.232Z,74.53
2019-03-26T21:40:02.653Z,74.54
2019-03-26T21:45:02.175Z,74.53
2019-03-26T21:50:02.522Z,74.59
2019-03-26T21:55:02.959Z,74.61
2019-03-26T22:00:03.302Z,74.63
2019-03-26T22:05:02.731Z,74.6
2019-03-26T22:10:03.173Z,74.64
2019-03-26T22:15:02.505Z,74.67
2019-03-26T22:20:02.927Z,74.68
2019-03-26T22:25:03.256Z,74.69
2019-03-26T22:30:02.676Z,74.72
2019-03-26T22:35:07.194Z,74.74
2019-03-26T22:40:02.647Z,74.74
2019-03-26T22:45:03.104Z,74.8
2019-03-26T22:50:02.508Z,74.84
2019-03-26T22:55:02.962Z,74.86
2019-03-26T23:00:03.392Z,74.87
2019-03-26T23:05:02.818Z,74.91
2019-03-26T23:10:03.274Z,74.94
2019-03-26T23:15:02.701Z,74.96
2019-03-26T23:20:03.122Z,75.04
2019-03-26T23:25:02.470Z,75.08
2019-03-26T23:30:02.887Z,75.21
2019-03-26T23:35:03.228Z,75.17
2019-03-26T23:40:02.640Z,75.18
2019-03-26T23:45:02.983Z,75.23
2019-03-26T23:50:02.402Z,75.23
2019-03-26T23:55:02.754Z,75.21
